sensor_id;sensor_type;location;lat;lon;timestamp;pressure;altitude;pressure_sealevel;temperature;humidity
47742;BME280;33504;52.066;6.096;2022-11-15T00:02:23;100811.84;;;9.70;51.96
47742;BME280;33504;52.066;6.096;2022-11-15T00:04:50;100810.71;;;9.14;52.63
47742;BME280;33504;52.066;6.096;2022-11-15T00:07:18;100812.87;;;9.48;52.01
47742;BME280;33504;52.066;6.096;2022-11-15T00:09:45;100820.51;;;8.82;52.91
47742;BME280;33504;52.066;6.096;2022-11-15T00:12:12;100819.16;;;9.42;52.36
47742;BME280;33504;52.066;6.096;2022-11-15T00:14:39;100813.48;;;9.46;53.03
47742;BME280;33504;52.066;6.096;2022-11-15T00:17:07;100818.74;;;9.45;52.67
47742;BME280;33504;52.066;6.096;2022-11-15T00:19:34;100811.48;;;9.44;52.39
47742;BME280;33504;52.066;6.096;2022-11-15T00:22:01;100814.05;;;8.99;53.36
47742;BME280;33504;52.066;6.096;2022-11-15T00:24:28;100809.96;;;9.78;52.26
47742;BME280;33504;52.066;6.096;2022-11-15T00:26:55;100807.76;;;9.84;52.20
47742;BME280;33504;52.066;6.096;2022-11-15T00:29:22;100809.18;;;10.07;52.42
47742;BME280;33504;52.066;6.096;2022-11-15T00:31:49;100803.88;;;9.63;52.45
47742;BME280;33504;52.066;6.096;2022-11-15T00:34:16;100799.06;;;9.67;52.43
47742;BME280;33504;52.066;6.096;2022-11-15T00:36:43;100793.48;;;9.83;52.24
47742;BME280;33504;52.066;6.096;2022-11-15T00:39:10;100789.15;;;9.89;52.20
47742;BME280;33504;52.066;6.096;2022-11-15T00:41:38;100790.37;;;9.90;52.28
47742;BME280;33504;52.066;6.096;2022-11-15T00:44:05;100786.41;;;9.93;52.25
47742;BME280;33504;52.066;6.096;2022-11-15T00:46:32;100785.55;;;9.98;52.73
47742;BME280;33504;52.066;6.096;2022-11-15T00:48:58;100784.88;;;10.04;52.22
47742;BME280;33504;52.066;6.096;2022-11-15T00:51:25;100785.09;;;10.01;52.44
47742;BME280;33504;52.066;6.096;2022-11-15T00:53:53;100787.04;;;10.24;51.94
47742;BME280;33504;52.066;6.096;2022-11-15T00:56:20;100789.94;;;9.77;53.10
47742;BME280;33504;52.066;6.096;2022-11-15T00:58:47;100787.20;;;10.11;52.32
47742;BME280;33504;52.066;6.096;2022-11-15T01:01:14;100780.63;;;10.28;52.60
47742;BME280;33504;52.066;6.096;2022-11-15T01:03:42;100779.64;;;9.93;52.94
47742;BME280;33504;52.066;6.096;2022-11-15T01:06:09;100775.25;;;9.89;53.02
47742;BME280;33504;52.066;6.096;2022-11-15T01:08:38;100769.56;;;10.12;52.60
47742;BME280;33504;52.066;6.096;2022-11-15T01:11:07;100769.37;;;9.91;53.03
47742;BME280;33504;52.066;6.096;2022-11-15T01:13:35;100763.27;;;9.64;53.73
47742;BME280;33504;52.066;6.096;2022-11-15T01:16:08;100762.49;;;9.87;53.40
47742;BME280;33504;52.066;6.096;2022-11-15T01:18:36;100767.56;;;9.68;54.34
47742;BME280;33504;52.066;6.096;2022-11-15T01:21:08;100769.63;;;9.77;53.65
47742;BME280;33504;52.066;6.096;2022-11-15T01:23:35;100766.15;;;9.72;54.44
47742;BME280;33504;52.066;6.096;2022-11-15T01:26:04;100761.34;;;10.23;53.33
47742;BME280;33504;52.066;6.096;2022-11-15T01:28:33;100759.28;;;10.01;53.24
47742;BME280;33504;52.066;6.096;2022-11-15T01:31:02;100753.24;;;9.94;53.06
47742;BME280;33504;52.066;6.096;2022-11-15T01:33:29;100752.17;;;10.18;53.14
47742;BME280;33504;52.066;6.096;2022-11-15T01:35:57;100751.84;;;10.06;52.98
47742;BME280;33504;52.066;6.096;2022-11-15T01:38:24;100746.72;;;9.74;54.19
47742;BME280;33504;52.066;6.096;2022-11-15T01:40:51;100743.17;;;10.35;53.40
47742;BME280;33504;52.066;6.096;2022-11-15T01:43:21;100735.05;;;10.11;53.59
47742;BME280;33504;52.066;6.096;2022-11-15T01:45:51;100732.24;;;10.15;53.45
47742;BME280;33504;52.066;6.096;2022-11-15T01:48:21;100730.38;;;10.37;53.03
47742;BME280;33504;52.066;6.096;2022-11-15T01:50:49;100732.31;;;10.62;53.10
47742;BME280;33504;52.066;6.096;2022-11-15T01:53:17;100732.77;;;10.53;52.88
47742;BME280;33504;52.066;6.096;2022-11-15T01:55:46;100731.79;;;10.45;53.19
47742;BME280;33504;52.066;6.096;2022-11-15T01:58:13;100731.25;;;10.35;53.36
47742;BME280;33504;52.066;6.096;2022-11-15T02:00:41;100731.63;;;10.48;53.18
47742;BME280;33504;52.066;6.096;2022-11-15T02:03:08;100732.46;;;10.39;52.98
47742;BME280;33504;52.066;6.096;2022-11-15T02:05:36;100729.40;;;10.73;53.26
47742;BME280;33504;52.066;6.096;2022-11-15T02:08:05;100727.92;;;10.63;52.62
47742;BME280;33504;52.066;6.096;2022-11-15T02:10:33;100730.91;;;10.26;52.91
47742;BME280;33504;52.066;6.096;2022-11-15T02:13:01;100724.91;;;11.02;52.45
47742;BME280;33504;52.066;6.096;2022-11-15T02:15:35;100726.07;;;10.98;52.23
47742;BME280;33504;52.066;6.096;2022-11-15T02:18:12;100723.76;;;10.57;52.51
47742;BME280;33504;52.066;6.096;2022-11-15T02:20:47;100719.68;;;10.72;52.29
47742;BME280;33504;52.066;6.096;2022-11-15T02:24:03;100723.19;;;11.70;52.35
47742;BME280;33504;52.066;6.096;2022-11-15T02:27:00;100720.71;;;10.95;52.54
47742;BME280;33504;52.066;6.096;2022-11-15T02:29:50;100720.72;;;10.82;52.34
47742;BME280;33504;52.066;6.096;2022-11-15T02:32:29;100720.82;;;10.73;52.54
47742;BME280;33504;52.066;6.096;2022-11-15T02:35:05;100719.41;;;11.14;52.35
47742;BME280;33504;52.066;6.096;2022-11-15T02:37:42;100714.50;;;11.21;52.21
47742;BME280;33504;52.066;6.096;2022-11-15T02:40:18;100713.43;;;10.74;52.72
47742;BME280;33504;52.066;6.096;2022-11-15T02:42:51;100708.92;;;10.79;53.24
47742;BME280;33504;52.066;6.096;2022-11-15T02:45:24;100711.05;;;11.39;52.65
47742;BME280;33504;52.066;6.096;2022-11-15T02:47:55;100710.24;;;10.61;53.32
47742;BME280;33504;52.066;6.096;2022-11-15T02:50:27;100705.09;;;10.39;53.76
47742;BME280;33504;52.066;6.096;2022-11-15T02:52:55;100699.10;;;10.81;53.49
47742;BME280;33504;52.066;6.096;2022-11-15T02:55:27;100693.55;;;10.66;53.33
47742;BME280;33504;52.066;6.096;2022-11-15T02:58:06;100689.22;;;10.54;53.59
47742;BME280;33504;52.066;6.096;2022-11-15T03:00:47;100686.46;;;10.83;53.57
47742;BME280;33504;52.066;6.096;2022-11-15T03:03:37;100681.71;;;10.90;53.00
47742;BME280;33504;52.066;6.096;2022-11-15T03:06:17;100679.64;;;10.58;53.64
47742;BME280;33504;52.066;6.096;2022-11-15T03:08:55;100677.69;;;11.33;53.18
47742;BME280;33504;52.066;6.096;2022-11-15T03:11:24;100669.80;;;10.68;53.57
47742;BME280;33504;52.066;6.096;2022-11-15T03:13:57;100668.12;;;10.88;53.24
47742;BME280;33504;52.066;6.096;2022-11-15T03:16:28;100666.56;;;11.11;53.27
47742;BME280;33504;52.066;6.096;2022-11-15T03:19:02;100667.40;;;11.08;52.90
47742;BME280;33504;52.066;6.096;2022-11-15T03:21:30;100668.15;;;10.83;53.40
47742;BME280;33504;52.066;6.096;2022-11-15T03:24:02;100667.76;;;10.98;53.23
47742;BME280;33504;52.066;6.096;2022-11-15T03:26:32;100659.36;;;11.24;52.72
47742;BME280;33504;52.066;6.096;2022-11-15T03:29:03;100659.75;;;11.01;53.11
47742;BME280;33504;52.066;6.096;2022-11-15T03:31:34;100655.48;;;11.16;52.92
47742;BME280;33504;52.066;6.096;2022-11-15T03:34:05;100655.38;;;11.15;52.96
47742;BME280;33504;52.066;6.096;2022-11-15T03:36:34;100653.87;;;11.01;53.47
47742;BME280;33504;52.066;6.096;2022-11-15T03:39:06;100652.28;;;11.37;52.70
47742;BME280;33504;52.066;6.096;2022-11-15T03:41:37;100655.45;;;11.46;53.09
47742;BME280;33504;52.066;6.096;2022-11-15T03:44:13;100656.64;;;11.20;53.31
47742;BME280;33504;52.066;6.096;2022-11-15T03:46:46;100656.11;;;11.02;53.64
47742;BME280;33504;52.066;6.096;2022-11-15T03:49:19;100652.90;;;11.10;53.13
47742;BME280;33504;52.066;6.096;2022-11-15T03:51:47;100650.71;;;11.20;53.43
47742;BME280;33504;52.066;6.096;2022-11-15T03:54:14;100645.58;;;11.43;53.21
47742;BME280;33504;52.066;6.096;2022-11-15T03:56:41;100648.87;;;11.02;54.10
47742;BME280;33504;52.066;6.096;2022-11-15T03:59:08;100655.62;;;11.28;53.69
47742;BME280;33504;52.066;6.096;2022-11-15T04:01:35;100653.39;;;11.42;53.71
47742;BME280;33504;52.066;6.096;2022-11-15T04:04:03;100657.33;;;11.45;53.73
47742;BME280;33504;52.066;6.096;2022-11-15T04:06:30;100660.38;;;11.19;54.39
47742;BME280;33504;52.066;6.096;2022-11-15T04:08:57;100662.54;;;11.53;53.86
47742;BME280;33504;52.066;6.096;2022-11-15T04:11:24;100661.77;;;11.54;53.90
47742;BME280;33504;52.066;6.096;2022-11-15T04:13:51;100666.61;;;11.47;54.33
47742;BME280;33504;52.066;6.096;2022-11-15T04:16:18;100664.95;;;11.62;54.18
47742;BME280;33504;52.066;6.096;2022-11-15T04:18:45;100666.88;;;11.79;53.89
47742;BME280;33504;52.066;6.096;2022-11-15T04:21:13;100671.06;;;11.70;54.38
47742;BME280;33504;52.066;6.096;2022-11-15T04:23:39;100672.22;;;11.73;54.45
47742;BME280;33504;52.066;6.096;2022-11-15T04:26:09;100672.06;;;11.76;53.91
47742;BME280;33504;52.066;6.096;2022-11-15T04:28:37;100671.66;;;12.13;53.76
47742;BME280;33504;52.066;6.096;2022-11-15T04:31:04;100667.28;;;11.78;54.57
47742;BME280;33504;52.066;6.096;2022-11-15T04:33:32;100667.09;;;12.04;54.33
47742;BME280;33504;52.066;6.096;2022-11-15T04:35:59;100665.80;;;12.06;54.37
47742;BME280;33504;52.066;6.096;2022-11-15T04:38:26;100662.07;;;11.73;54.21
47742;BME280;33504;52.066;6.096;2022-11-15T04:40:54;100656.97;;;12.40;53.83
47742;BME280;33504;52.066;6.096;2022-11-15T04:43:21;100651.26;;;11.82;54.81
47742;BME280;33504;52.066;6.096;2022-11-15T04:45:48;100651.35;;;11.90;54.63
47742;BME280;33504;52.066;6.096;2022-11-15T04:48:15;100652.26;;;12.10;54.35
47742;BME280;33504;52.066;6.096;2022-11-15T04:50:42;100655.56;;;12.28;54.60
47742;BME280;33504;52.066;6.096;2022-11-15T04:53:09;100662.18;;;11.92;54.46
47742;BME280;33504;52.066;6.096;2022-11-15T04:55:36;100659.49;;;11.60;55.64
47742;BME280;33504;52.066;6.096;2022-11-15T04:58:03;100660.20;;;12.08;54.74
47742;BME280;33504;52.066;6.096;2022-11-15T05:00:30;100657.92;;;12.28;54.26
47742;BME280;33504;52.066;6.096;2022-11-15T05:02:57;100652.79;;;12.21;54.53
47742;BME280;33504;52.066;6.096;2022-11-15T05:05:25;100652.39;;;12.21;53.99
47742;BME280;33504;52.066;6.096;2022-11-15T05:07:51;100654.99;;;12.37;54.26
47742;BME280;33504;52.066;6.096;2022-11-15T05:10:18;100653.23;;;12.42;53.69
47742;BME280;33504;52.066;6.096;2022-11-15T05:12:46;100659.73;;;12.57;53.59
47742;BME280;33504;52.066;6.096;2022-11-15T05:15:13;100657.24;;;12.54;53.87
47742;BME280;33504;52.066;6.096;2022-11-15T05:17:40;100658.23;;;12.62;53.90
47742;BME280;33504;52.066;6.096;2022-11-15T05:20:08;100656.20;;;12.31;54.04
47742;BME280;33504;52.066;6.096;2022-11-15T05:22:35;100655.87;;;12.50;54.03
47742;BME280;33504;52.066;6.096;2022-11-15T05:25:03;100654.18;;;12.23;54.33
47742;BME280;33504;52.066;6.096;2022-11-15T05:27:31;100653.47;;;12.37;54.16
47742;BME280;33504;52.066;6.096;2022-11-15T05:29:58;100654.62;;;12.71;54.59
47742;BME280;33504;52.066;6.096;2022-11-15T05:32:25;100655.27;;;12.35;55.00
47742;BME280;33504;52.066;6.096;2022-11-15T05:34:52;100655.91;;;12.26;54.85
47742;BME280;33504;52.066;6.096;2022-11-15T05:37:20;100648.86;;;12.66;54.36
47742;BME280;33504;52.066;6.096;2022-11-15T05:39:48;100651.89;;;12.15;54.55
47742;BME280;33504;52.066;6.096;2022-11-15T05:42:15;100647.84;;;12.30;54.15
47742;BME280;33504;52.066;6.096;2022-11-15T05:44:46;100646.72;;;12.16;54.98
47742;BME280;33504;52.066;6.096;2022-11-15T05:47:17;100646.42;;;12.60;54.67
47742;BME280;33504;52.066;6.096;2022-11-15T05:49:45;100652.39;;;12.50;54.59
47742;BME280;33504;52.066;6.096;2022-11-15T05:52:16;100653.66;;;12.54;54.52
47742;BME280;33504;52.066;6.096;2022-11-15T05:54:47;100654.78;;;12.68;54.00
47742;BME280;33504;52.066;6.096;2022-11-15T05:57:15;100651.51;;;12.40;54.21
47742;BME280;33504;52.066;6.096;2022-11-15T05:59:42;100657.69;;;12.59;54.99
47742;BME280;33504;52.066;6.096;2022-11-15T06:02:10;100657.84;;;12.78;54.65
47742;BME280;33504;52.066;6.096;2022-11-15T06:04:37;100660.89;;;12.71;54.34
47742;BME280;33504;52.066;6.096;2022-11-15T06:07:04;100662.66;;;12.76;54.20
47742;BME280;33504;52.066;6.096;2022-11-15T06:09:32;100658.88;;;12.71;54.42
47742;BME280;33504;52.066;6.096;2022-11-15T06:11:58;100662.25;;;13.02;54.23
47742;BME280;33504;52.066;6.096;2022-11-15T06:14:26;100666.33;;;12.78;54.42
47742;BME280;33504;52.066;6.096;2022-11-15T06:16:53;100666.90;;;12.73;53.90
47742;BME280;33504;52.066;6.096;2022-11-15T06:19:20;100672.32;;;12.67;54.05
47742;BME280;33504;52.066;6.096;2022-11-15T06:21:47;100671.43;;;12.51;55.01
47742;BME280;33504;52.066;6.096;2022-11-15T06:24:15;100672.11;;;12.41;54.75
47742;BME280;33504;52.066;6.096;2022-11-15T06:26:42;100671.79;;;12.41;55.41
47742;BME280;33504;52.066;6.096;2022-11-15T06:29:09;100670.33;;;12.24;55.86
47742;BME280;33504;52.066;6.096;2022-11-15T06:31:36;100667.15;;;12.57;55.24
47742;BME280;33504;52.066;6.096;2022-11-15T06:34:03;100670.45;;;12.61;55.04
47742;BME280;33504;52.066;6.096;2022-11-15T06:36:31;100667.13;;;12.64;54.93
47742;BME280;33504;52.066;6.096;2022-11-15T06:39:00;100666.91;;;12.86;54.56
47742;BME280;33504;52.066;6.096;2022-11-15T06:41:27;100674.12;;;12.72;54.94
47742;BME280;33504;52.066;6.096;2022-11-15T06:43:54;100675.94;;;12.75;54.99
47742;BME280;33504;52.066;6.096;2022-11-15T06:46:21;100675.92;;;12.62;55.07
47742;BME280;33504;52.066;6.096;2022-11-15T06:48:50;100681.22;;;12.75;54.69
47742;BME280;33504;52.066;6.096;2022-11-15T06:51:17;100684.01;;;12.55;55.32
47742;BME280;33504;52.066;6.096;2022-11-15T06:53:45;100680.08;;;12.82;54.82
47742;BME280;33504;52.066;6.096;2022-11-15T06:56:12;100683.68;;;12.75;55.12
47742;BME280;33504;52.066;6.096;2022-11-15T06:58:39;100684.70;;;12.22;55.46
47742;BME280;33504;52.066;6.096;2022-11-15T07:01:07;100693.53;;;12.31;56.06
47742;BME280;33504;52.066;6.096;2022-11-15T07:03:37;100696.35;;;12.92;54.78
47742;BME280;33504;52.066;6.096;2022-11-15T07:06:05;100700.04;;;12.44;55.75
47742;BME280;33504;52.066;6.096;2022-11-15T07:08:32;100700.50;;;12.30;56.17
47742;BME280;33504;52.066;6.096;2022-11-15T07:11:00;100686.98;;;12.72;55.78
47742;BME280;33504;52.066;6.096;2022-11-15T07:13:29;100681.16;;;12.71;55.41
47742;BME280;33504;52.066;6.096;2022-11-15T07:15:56;100685.95;;;12.72;54.92
47742;BME280;33504;52.066;6.096;2022-11-15T07:18:24;100689.72;;;13.22;54.36
47742;BME280;33504;52.066;6.096;2022-11-15T07:20:50;100687.79;;;12.74;54.39
47742;BME280;33504;52.066;6.096;2022-11-15T07:23:18;100689.60;;;12.75;54.36
47742;BME280;33504;52.066;6.096;2022-11-15T07:25:45;100689.45;;;12.88;54.47
47742;BME280;33504;52.066;6.096;2022-11-15T07:28:11;100693.60;;;13.37;53.97
47742;BME280;33504;52.066;6.096;2022-11-15T07:30:39;100699.94;;;12.62;54.66
47742;BME280;33504;52.066;6.096;2022-11-15T07:33:06;100708.54;;;12.98;54.51
47742;BME280;33504;52.066;6.096;2022-11-15T07:35:33;100711.93;;;12.85;54.28
47742;BME280;33504;52.066;6.096;2022-11-15T07:38:01;100710.30;;;13.06;53.70
47742;BME280;33504;52.066;6.096;2022-11-15T07:40:30;100715.53;;;12.95;53.79
47742;BME280;33504;52.066;6.096;2022-11-15T07:43:00;100719.39;;;13.45;54.15
47742;BME280;33504;52.066;6.096;2022-11-15T07:45:28;100713.72;;;13.48;54.05
47742;BME280;33504;52.066;6.096;2022-11-15T07:47:56;100709.22;;;13.10;53.86
47742;BME280;33504;52.066;6.096;2022-11-15T07:50:24;100713.50;;;12.74;54.73
47742;BME280;33504;52.066;6.096;2022-11-15T07:52:56;100715.89;;;12.83;54.13
47742;BME280;33504;52.066;6.096;2022-11-15T07:55:25;100712.53;;;12.58;55.02
47742;BME280;33504;52.066;6.096;2022-11-15T07:57:53;100709.20;;;12.81;54.98
47742;BME280;33504;52.066;6.096;2022-11-15T08:00:20;100706.70;;;13.08;54.49
47742;BME280;33504;52.066;6.096;2022-11-15T08:02:47;100712.09;;;13.39;54.48
47742;BME280;33504;52.066;6.096;2022-11-15T08:05:15;100712.46;;;12.62;55.04
47742;BME280;33504;52.066;6.096;2022-11-15T08:07:41;100716.10;;;12.92;54.54
47742;BME280;33504;52.066;6.096;2022-11-15T08:10:09;100716.20;;;12.97;54.76
47742;BME280;33504;52.066;6.096;2022-11-15T08:12:36;100712.92;;;12.80;54.78
47742;BME280;33504;52.066;6.096;2022-11-15T08:15:03;100710.12;;;13.53;54.44
47742;BME280;33504;52.066;6.096;2022-11-15T08:17:30;100710.08;;;13.06;54.34
47742;BME280;33504;52.066;6.096;2022-11-15T08:19:57;100715.37;;;13.26;53.69
47742;BME280;33504;52.066;6.096;2022-11-15T08:22:24;100712.20;;;13.35;53.57
47742;BME280;33504;52.066;6.096;2022-11-15T08:24:51;100711.57;;;13.26;53.99
47742;BME280;33504;52.066;6.096;2022-11-15T08:27:19;100712.06;;;13.27;54.05
47742;BME280;33504;52.066;6.096;2022-11-15T08:29:48;100708.77;;;13.67;53.81
47742;BME280;33504;52.066;6.096;2022-11-15T08:32:15;100702.37;;;13.28;54.05
47742;BME280;33504;52.066;6.096;2022-11-15T08:34:42;100701.43;;;13.11;54.23
47742;BME280;33504;52.066;6.096;2022-11-15T08:37:09;100692.07;;;13.31;54.46
47742;BME280;33504;52.066;6.096;2022-11-15T08:39:36;100691.15;;;13.23;54.17
47742;BME280;33504;52.066;6.096;2022-11-15T08:42:03;100695.16;;;13.22;54.17
47742;BME280;33504;52.066;6.096;2022-11-15T08:44:31;100692.10;;;13.14;54.34
47742;BME280;33504;52.066;6.096;2022-11-15T08:46:57;100697.24;;;13.24;54.09
47742;BME280;33504;52.066;6.096;2022-11-15T08:49:25;100694.00;;;13.23;54.20
47742;BME280;33504;52.066;6.096;2022-11-15T08:51:52;100689.18;;;12.83;54.97
47742;BME280;33504;52.066;6.096;2022-11-15T08:54:19;100689.33;;;13.24;54.33
47742;BME280;33504;52.066;6.096;2022-11-15T08:56:46;100689.54;;;13.12;54.70
47742;BME280;33504;52.066;6.096;2022-11-15T08:59:13;100689.39;;;13.31;54.37
47742;BME280;33504;52.066;6.096;2022-11-15T09:01:40;100685.14;;;12.90;54.77
47742;BME280;33504;52.066;6.096;2022-11-15T09:04:08;100693.76;;;12.73;55.03
47742;BME280;33504;52.066;6.096;2022-11-15T09:06:35;100693.72;;;12.49;55.59
47742;BME280;33504;52.066;6.096;2022-11-15T09:09:03;100693.29;;;12.99;55.67
47742;BME280;33504;52.066;6.096;2022-11-15T09:11:30;100688.13;;;12.49;56.12
47742;BME280;33504;52.066;6.096;2022-11-15T09:13:57;100684.87;;;13.36;55.01
47742;BME280;33504;52.066;6.096;2022-11-15T09:16:25;100690.05;;;13.54;54.86
47742;BME280;33504;52.066;6.096;2022-11-15T09:18:52;100688.61;;;12.95;55.35
47742;BME280;33504;52.066;6.096;2022-11-15T09:21:20;100686.99;;;13.11;54.60
47742;BME280;33504;52.066;6.096;2022-11-15T09:23:50;100679.91;;;12.81;55.19
47742;BME280;33504;52.066;6.096;2022-11-15T09:26:18;100681.06;;;13.37;54.86
47742;BME280;33504;52.066;6.096;2022-11-15T09:28:46;100683.55;;;12.90;55.14
47742;BME280;33504;52.066;6.096;2022-11-15T09:31:13;100683.42;;;12.97;55.27
47742;BME280;33504;52.066;6.096;2022-11-15T09:33:43;100683.97;;;12.99;55.09
47742;BME280;33504;52.066;6.096;2022-11-15T09:36:11;100682.56;;;12.97;54.94
47742;BME280;33504;52.066;6.096;2022-11-15T09:38:38;100685.62;;;12.98;55.10
47742;BME280;33504;52.066;6.096;2022-11-15T09:41:22;100679.61;;;12.43;55.71
47742;BME280;33504;52.066;6.096;2022-11-15T09:44:02;100683.59;;;12.75;55.27
47742;BME280;33504;52.066;6.096;2022-11-15T09:46:40;100677.56;;;12.47;54.90
47742;BME280;33504;52.066;6.096;2022-11-15T09:49:13;100670.70;;;13.20;54.40
47742;BME280;33504;52.066;6.096;2022-11-15T09:51:45;100663.97;;;13.18;54.60
47742;BME280;33504;52.066;6.096;2022-11-15T09:54:20;100663.33;;;12.52;54.95
47742;BME280;33504;52.066;6.096;2022-11-15T09:56:48;100663.83;;;13.02;54.23
47742;BME280;33504;52.066;6.096;2022-11-15T09:59:26;100667.49;;;12.79;54.66
47742;BME280;33504;52.066;6.096;2022-11-15T10:02:00;100667.26;;;12.66;55.35
47742;BME280;33504;52.066;6.096;2022-11-15T10:04:31;100661.40;;;12.35;54.72
47742;BME280;33504;52.066;6.096;2022-11-15T10:07:04;100656.21;;;12.44;55.35
47742;BME280;33504;52.066;6.096;2022-11-15T10:09:37;100652.36;;;12.70;55.09
47742;BME280;33504;52.066;6.096;2022-11-15T10:12:07;100649.29;;;12.95;54.94
47742;BME280;33504;52.066;6.096;2022-11-15T10:14:35;100650.44;;;12.99;54.31
47742;BME280;33504;52.066;6.096;2022-11-15T10:17:14;100647.97;;;12.68;54.92
47742;BME280;33504;52.066;6.096;2022-11-15T10:19:52;100641.79;;;12.57;54.72
47742;BME280;33504;52.066;6.096;2022-11-15T10:22:26;100640.16;;;13.34;53.63
47742;BME280;33504;52.066;6.096;2022-11-15T10:25:10;100636.38;;;14.22;52.41
47742;BME280;33504;52.066;6.096;2022-11-15T10:27:41;100635.16;;;13.45;52.28
47742;BME280;33504;52.066;6.096;2022-11-15T10:30:14;100632.43;;;13.62;51.93
47742;BME280;33504;52.066;6.096;2022-11-15T10:32:43;100624.93;;;12.65;53.73
47742;BME280;33504;52.066;6.096;2022-11-15T10:35:21;100630.41;;;13.55;53.21
47742;BME280;33504;52.066;6.096;2022-11-15T10:37:48;100630.35;;;13.84;52.81
47742;BME280;33504;52.066;6.096;2022-11-15T10:40:19;100626.24;;;12.90;52.79
47742;BME280;33504;52.066;6.096;2022-11-15T10:42:47;100625.80;;;13.30;52.84
47742;BME280;33504;52.066;6.096;2022-11-15T10:45:31;100620.60;;;13.24;51.97
47742;BME280;33504;52.066;6.096;2022-11-15T10:48:31;100626.08;;;14.28;52.07
47742;BME280;33504;52.066;6.096;2022-11-15T10:50:58;100629.24;;;13.61;50.54
47742;BME280;33504;52.066;6.096;2022-11-15T10:53:32;100623.06;;;13.52;51.39
47742;BME280;33504;52.066;6.096;2022-11-15T10:56:03;100616.54;;;13.93;49.95
47742;BME280;33504;52.066;6.096;2022-11-15T10:58:36;100619.23;;;13.74;49.62
47742;BME280;33504;52.066;6.096;2022-11-15T11:01:10;100606.58;;;12.91;51.16
47742;BME280;33504;52.066;6.096;2022-11-15T11:03:39;100600.66;;;13.57;50.44
47742;BME280;33504;52.066;6.096;2022-11-15T11:06:09;100600.97;;;13.74;49.07
47742;BME280;33504;52.066;6.096;2022-11-15T11:08:37;100590.39;;;13.87;49.28
47742;BME280;33504;52.066;6.096;2022-11-15T11:11:05;100582.59;;;14.16;49.13
47742;BME280;33504;52.066;6.096;2022-11-15T11:13:34;100580.76;;;13.76;47.54
47742;BME280;33504;52.066;6.096;2022-11-15T11:16:20;100592.76;;;14.67;47.27
47742;BME280;33504;52.066;6.096;2022-11-15T11:18:57;100582.65;;;15.12;44.30
47742;BME280;33504;52.066;6.096;2022-11-15T11:21:38;100587.13;;;14.59;44.21
47742;BME280;33504;52.066;6.096;2022-11-15T11:24:14;100576.64;;;14.24;44.79
47742;BME280;33504;52.066;6.096;2022-11-15T11:26:49;100584.76;;;14.18;45.00
47742;BME280;33504;52.066;6.096;2022-11-15T11:29:36;100579.30;;;14.39;45.09
47742;BME280;33504;52.066;6.096;2022-11-15T11:32:28;100577.61;;;14.26;44.80
47742;BME280;33504;52.066;6.096;2022-11-15T11:35:03;100574.36;;;14.47;44.19
47742;BME280;33504;52.066;6.096;2022-11-15T11:37:42;100567.38;;;14.05;44.65
47742;BME280;33504;52.066;6.096;2022-11-15T11:40:22;100558.91;;;14.71;43.88
47742;BME280;33504;52.066;6.096;2022-11-15T11:42:56;100559.55;;;14.97;43.83
47742;BME280;33504;52.066;6.096;2022-11-15T11:45:47;100559.69;;;14.94;41.53
47742;BME280;33504;52.066;6.096;2022-11-15T11:48:29;100558.61;;;14.25;42.88
47742;BME280;33504;52.066;6.096;2022-11-15T11:51:05;100557.51;;;14.96;41.87
47742;BME280;33504;52.066;6.096;2022-11-15T11:53:39;100554.56;;;14.79;42.32
47742;BME280;33504;52.066;6.096;2022-11-15T11:56:15;100553.81;;;15.93;41.84
47742;BME280;33504;52.066;6.096;2022-11-15T11:58:45;100552.07;;;15.84;40.66
47742;BME280;33504;52.066;6.096;2022-11-15T12:01:16;100556.19;;;16.07;40.12
47742;BME280;33504;52.066;6.096;2022-11-15T12:03:47;100554.20;;;15.25;40.00
47742;BME280;33504;52.066;6.096;2022-11-15T12:06:23;100560.75;;;15.47;39.48
47742;BME280;33504;52.066;6.096;2022-11-15T12:08:58;100556.68;;;14.56;40.71
47742;BME280;33504;52.066;6.096;2022-11-15T12:11:35;100552.04;;;14.51;40.93
47742;BME280;33504;52.066;6.096;2022-11-15T12:14:22;100540.24;;;14.13;41.76
47742;BME280;33504;52.066;6.096;2022-11-15T12:16:51;100542.14;;;14.17;41.11
47742;BME280;33504;52.066;6.096;2022-11-15T12:19:18;100538.02;;;14.18;41.87
47742;BME280;33504;52.066;6.096;2022-11-15T12:21:49;100524.95;;;14.79;40.15
47742;BME280;33504;52.066;6.096;2022-11-15T12:24:23;100523.32;;;14.14;39.62
47742;BME280;33504;52.066;6.096;2022-11-15T12:26:56;100510.53;;;13.99;40.45
47742;BME280;33504;52.066;6.096;2022-11-15T12:29:31;100506.26;;;14.18;40.04
47742;BME280;33504;52.066;6.096;2022-11-15T12:32:01;100498.87;;;13.75;39.23
47742;BME280;33504;52.066;6.096;2022-11-15T12:34:36;100496.59;;;14.60;38.87
47742;BME280;33504;52.066;6.096;2022-11-15T12:37:44;100492.46;;;14.54;38.60
47742;BME280;33504;52.066;6.096;2022-11-15T12:40:35;100480.86;;;14.13;38.71
47742;BME280;33504;52.066;6.096;2022-11-15T12:43:38;100473.15;;;14.54;39.09
47742;BME280;33504;52.066;6.096;2022-11-15T12:46:12;100469.35;;;14.76;38.79
47742;BME280;33504;52.066;6.096;2022-11-15T12:48:48;100465.24;;;15.45;37.62
47742;BME280;33504;52.066;6.096;2022-11-15T12:51:16;100462.59;;;15.41;38.51
47742;BME280;33504;52.066;6.096;2022-11-15T12:53:43;100457.12;;;14.73;38.29
47742;BME280;33504;52.066;6.096;2022-11-15T12:56:21;100453.82;;;15.28;37.93
47742;BME280;33504;52.066;6.096;2022-11-15T12:58:50;100443.65;;;15.85;37.64
47742;BME280;33504;52.066;6.096;2022-11-15T13:01:57;100435.90;;;16.90;37.30
47742;BME280;33504;52.066;6.096;2022-11-15T13:04:27;100428.65;;;16.00;36.33
47742;BME280;33504;52.066;6.096;2022-11-15T13:06:57;100424.91;;;16.04;36.69
47742;BME280;33504;52.066;6.096;2022-11-15T13:09:57;100422.70;;;17.06;36.45